Time;durP1;ratioP1;P1;durP2;ratioP2;P2;SDS_P1;SDS_P2;PMS_P1;PMS_P2;Temp;Humidity;BMP_temperature;BMP_pressure;BME280_temperature;BME280_humidity;BME280_pressure;Samples;Min_cycle;Max_cycle;Signal;HPM_P1;HPM_P2
2022/01/25 00:32:14;;;;;;;40.60;23.40;;;;;;;-0.45;94.98;100481.66;105232;1270;62101;-78
2022/01/25 00:34:40;;;;;;;38.90;24.10;;;;;;;-0.45;95.04;100480.44;105184;1271;76912;-79
2022/01/25 00:37:07;;;;;;;39.60;24.80;;;;;;;-0.45;95.19;100482.38;105175;1270;69442;-80
2022/01/25 00:39:37;;;;;;;39.50;23.10;;;;;;;-0.46;95.32;100481.33;105171;1271;74617;-80
2022/01/25 00:42:09;;;;;;;36.20;24.10;;;;;;;-0.46;95.46;100482.53;105144;1271;62108;-80
2022/01/25 00:44:38;;;;;;;37.00;22.90;;;;;;;-0.45;95.64;100483.41;105292;1271;62125;-80
2022/01/25 00:47:07;;;;;;;35.50;22.40;;;;;;;-0.46;96.04;100482.72;105178;1271;75750;-78
2022/01/25 00:49:39;;;;;;;40.60;24.10;;;;;;;-0.47;96.31;100480.63;105163;1271;70612;-80
2022/01/25 00:54:58;;;;;;;40.00;23.00;;;;;;;-0.47;96.32;100485.16;104934;1271;62140;-79
2022/01/25 00:57:25;;;;;;;37.20;23.90;;;;;;;-0.47;96.64;100483.59;105162;1271;62176;-84
2022/01/25 00:59:52;;;;;;;44.30;24.70;;;;;;;-0.47;96.86;100483.25;105211;1270;75987;-81
2022/01/25 01:02:19;;;;;;;44.00;26.40;;;;;;;-0.48;96.99;100477.82;105159;1271;70437;-80
2022/01/25 01:04:46;;;;;;;39.60;24.30;;;;;;;-0.48;97.34;100478.17;105185;1271;72878;-79
2022/01/25 01:07:15;;;;;;;39.80;24.40;;;;;;;-0.49;97.44;100472.41;104974;1271;62131;-80
2022/01/25 01:09:47;;;;;;;38.10;25.70;;;;;;;-0.49;97.53;100471.02;104863;1271;179856;-79
2022/01/25 01:15:27;;;;;;;37.40;21.90;;;;;;;-0.50;97.90;100471.36;105207;1271;69203;-79
2022/01/25 01:29:16;;;;;;;40.20;23.60;;;;;;;-0.52;99.08;100462.63;105174;1270;70406;-79
2022/01/25 01:32:04;;;;;;;38.40;24.40;;;;;;;-0.52;99.35;100457.05;105179;1271;74267;-77
2022/01/25 01:37:45;;;;;;;41.70;25.00;;;;;;;-0.53;99.65;100457.22;105200;1271;62108;-80
2022/01/25 01:49:04;;;;;;;37.70;23.60;;;;;;;-0.53;100.00;100447.61;105211;1271;62143;-81
2022/01/25 01:51:33;;;;;;;40.60;25.40;;;;;;;-0.54;100.00;100445.52;105193;1271;62081;-80
2022/01/25 01:54:14;;;;;;;37.40;24.10;;;;;;;-0.55;100.00;100442.91;105238;1271;75955;-77
2022/01/25 01:56:43;;;;;;;36.30;24.60;;;;;;;-0.56;100.00;100439.06;105224;1271;69318;-75
2022/01/25 01:59:16;;;;;;;37.00;23.30;;;;;;;-0.56;100.00;100437.31;105193;1271;73176;-78
2022/01/25 02:01:45;;;;;;;40.40;23.80;;;;;;;-0.57;100.00;100429.64;105156;1271;62084;-78
2022/01/25 02:04:14;;;;;;;37.80;24.00;;;;;;;-0.58;100.00;100424.04;105048;1271;61983;-78
2022/01/25 02:06:41;;;;;;;42.70;26.30;;;;;;;-0.58;100.00;100418.46;105352;1270;77107;-78
2022/01/25 02:09:10;;;;;;;35.30;23.60;;;;;;;-0.57;100.00;100417.42;105163;1270;69521;-78
2022/01/25 02:11:38;;;;;;;42.30;24.60;;;;;;;-0.57;100.00;100421.27;105256;1271;73186;-77
2022/01/25 02:14:08;;;;;;;41.90;25.50;;;;;;;-0.58;100.00;100414.63;104232;1271;1003773;-79
2022/01/25 02:24:47;;;;;;;41.10;24.10;;;;;;;-0.59;100.00;100400.65;104423;1271;1003819;-80
2022/01/25 02:27:14;;;;;;;41.50;24.20;;;;;;;-0.57;100.00;100399.44;105185;1271;62088;-77
2022/01/25 02:29:41;;;;;;;36.20;23.30;;;;;;;-0.57;100.00;100400.66;104938;1271;62152;-78
2022/01/25 02:32:08;;;;;;;37.00;21.90;;;;;;;-0.56;100.00;100399.09;104912;1271;74282;-78
2022/01/25 02:34:35;;;;;;;39.60;22.50;;;;;;;-0.55;100.00;100397.88;105206;1271;69486;-78
2022/01/25 02:37:08;;;;;;;37.50;23.90;;;;;;;-0.54;100.00;100399.79;105185;1271;74341;-78
2022/01/25 02:39:42;;;;;;;42.60;25.50;;;;;;;-0.54;100.00;100394.73;104907;1271;62143;-78
2022/01/25 02:42:11;;;;;;;37.70;23.80;;;;;;;-0.54;100.00;100394.89;105243;1270;62168;-79
2022/01/25 02:44:39;;;;;;;36.70;24.40;;;;;;;-0.53;100.00;100396.81;104888;1271;76053;-78
2022/01/25 02:49:51;;;;;;;39.20;24.10;;;;;;;-0.52;100.00;100394.02;105119;1271;74235;-78
2022/01/25 02:52:19;;;;;;;33.50;22.40;;;;;;;-0.52;100.00;100389.66;105167;1271;62099;-78
2022/01/25 02:54:46;;;;;;;37.20;24.10;;;;;;;-0.52;100.00;100386.34;104769;1274;62177;-79
2022/01/25 02:57:13;;;;;;;36.50;22.70;;;;;;;-0.52;100.00;100384.77;105197;1271;76982;-80
2022/01/25 02:59:39;;;;;;;38.10;24.20;;;;;;;-0.52;100.00;100384.27;105236;1271;69562;-81
2022/01/25 03:02:06;;;;;;;32.50;23.40;;;;;;;-0.51;100.00;100375.35;105069;1272;72954;-77
2022/01/25 03:04:33;;;;;;;37.60;22.80;;;;;;;-0.50;100.00;100378.83;105278;1271;62189;-79
2022/01/25 03:06:59;;;;;;;37.10;22.40;;;;;;;-0.49;100.00;100373.95;105172;1271;62018;-79
2022/01/25 03:09:27;;;;;;;39.30;24.80;;;;;;;-0.48;100.00;100372.20;105200;1271;77269;-79
2022/01/25 03:11:55;;;;;;;36.10;23.30;;;;;;;-0.46;100.00;100370.29;105199;1271;69151;-79
2022/01/25 03:14:26;;;;;;;34.40;22.70;;;;;;;-0.46;100.00;100370.45;105016;1271;74391;-79
2022/01/25 03:22:13;;;;;;;37.10;24.40;;;;;;;-0.43;100.00;100371.85;105254;1271;76316;-80
2022/01/25 03:24:41;;;;;;;34.00;22.90;;;;;;;-0.42;100.00;100365.23;104484;1271;1003767;-77
2022/01/25 03:27:08;;;;;;;38.30;23.30;;;;;;;-0.41;100.00;100360.86;105213;1271;73256;-79
2022/01/25 03:29:35;;;;;;;33.70;20.70;;;;;;;-0.39;100.00;100359.46;104930;1274;62116;-79
2022/01/25 03:32:02;;;;;;;32.40;21.10;;;;;;;-0.37;100.00;100361.90;105212;1271;62084;-79
2022/01/25 03:34:29;;;;;;;35.50;22.00;;;;;;;-0.36;100.00;100364.35;105243;1270;77153;-79
2022/01/25 03:36:55;;;;;;;37.10;21.90;;;;;;;-0.35;100.00;100366.61;105202;1271;70331;-78
2022/01/25 03:39:22;;;;;;;36.00;23.50;;;;;;;-0.34;100.00;100363.13;105172;1270;74499;-79
2022/01/25 03:41:49;;;;;;;34.20;22.20;;;;;;;-0.33;100.00;100361.03;105176;1271;62191;-78
2022/01/25 03:44:17;;;;;;;32.20;22.20;;;;;;;-0.33;100.00;100366.96;105230;1271;62107;-79
2022/01/25 03:52:06;;;;;;;31.30;20.80;;;;;;;-0.30;99.96;100357.53;105004;1271;74296;-78
2022/01/25 03:54:33;;;;;;;33.80;22.80;;;;;;;-0.30;99.97;100356.13;105007;1271;62097;-77
2022/01/25 03:57:00;;;;;;;33.60;22.00;;;;;;;-0.28;99.81;100360.51;104963;1271;62197;-79
2022/01/25 03:59:28;;;;;;;32.80;22.20;;;;;;;-0.28;99.79;100362.41;105204;1271;76990;-79
2022/01/25 04:01:56;;;;;;;30.40;20.60;;;;;;;-0.28;99.71;100353.34;105163;1271;69400;-80
2022/01/25 04:04:23;;;;;;;35.80;21.70;;;;;;;-0.28;99.67;100348.10;105212;1271;74306;-79
2022/01/25 04:06:52;;;;;;;31.60;22.70;;;;;;;-0.27;99.49;100344.60;105200;1271;62046;-79
2022/01/25 04:09:21;;;;;;;34.90;22.60;;;;;;;-0.27;99.48;100345.65;105143;1271;62084;-78
2022/01/25 04:11:48;;;;;;;33.70;22.20;;;;;;;-0.26;99.56;100340.60;105197;1271;75272;-80
2022/01/25 04:14:15;;;;;;;32.60;20.60;;;;;;;-0.26;99.50;100341.81;105194;1271;69293;-78
2022/01/25 04:16:58;;;;;;;35.00;22.70;;;;;;;-0.25;99.33;100341.29;105257;1271;73572;-78
2022/01/25 04:19:33;;;;;;;32.50;20.70;;;;;;;-0.25;99.30;100340.94;105268;1271;62119;-78
2022/01/25 04:27:12;;;;;;;29.40;20.80;;;;;;;-0.25;99.44;100343.02;105453;1271;69266;-78
2022/01/25 04:29:38;;;;;;;29.70;19.00;;;;;;;-0.26;99.61;100342.34;105460;1271;73273;-81
2022/01/25 04:32:06;;;;;;;36.40;21.80;;;;;;;-0.27;99.63;100340.06;105325;1271;62134;-78
2022/01/25 04:53:49;;;;;;;36.30;23.40;;;;;;;-0.47;100.00;100320.01;107945;1271;70520;-79
2022/01/25 04:56:28;;;;;;;34.10;23.80;;;;;;;-0.51;100.00;100320.70;106215;1271;73174;-78
2022/01/25 05:01:46;;;;;;;33.80;21.50;;;;;;;-0.56;100.00;100331.02;104948;1271;61976;-80
2022/01/25 05:04:20;;;;;;;37.20;23.00;;;;;;;-0.57;100.00;100332.95;105219;1271;75864;-79
2022/01/25 05:06:49;;;;;;;40.50;23.80;;;;;;;-0.57;100.00;100328.40;104965;1271;67530;-80
2022/01/25 05:09:18;;;;;;;37.60;23.90;;;;;;;-0.58;100.00;100321.07;105194;1271;74724;-82
2022/01/25 05:11:49;;;;;;;34.20;21.10;;;;;;;-0.58;100.00;100317.56;105178;1271;62060;-79
2022/01/25 05:14:25;;;;;;;35.20;23.50;;;;;;;-0.59;100.00;100309.71;105164;1271;62229;-80
2022/01/25 05:17:00;;;;;;;35.40;23.60;;;;;;;-0.59;100.00;100307.80;105232;1271;75836;-77
2022/01/25 05:22:23;;;;;;;40.90;24.80;;;;;;;-0.63;100.00;100300.98;105204;1271;73312;-80
2022/01/25 05:24:52;;;;;;;34.40;22.70;;;;;;;-0.65;100.00;100301.69;105206;1271;62377;-80
2022/01/25 05:27:22;;;;;;;35.50;23.70;;;;;;;-0.68;100.00;100291.73;105172;1271;62091;-78
2022/01/25 05:29:49;;;;;;;42.60;25.80;;;;;;;-0.69;100.00;100295.41;105283;1271;77384;-80
2022/01/25 05:32:16;;;;;;;42.80;26.90;;;;;;;-0.70;100.00;100299.08;105221;1271;69407;-78
2022/01/25 05:34:43;;;;;;;39.90;25.60;;;;;;;-0.70;100.00;100299.42;105198;1270;74642;-76
2022/01/25 05:37:10;;;;;;;40.40;25.30;;;;;;;-0.70;100.00;100302.73;105193;1271;62088;-79
2022/01/25 05:39:37;;;;;;;35.60;23.30;;;;;;;-0.71;100.00;100303.27;105228;1271;62075;-76
2022/01/25 05:47:25;;;;;;;40.40;26.20;;;;;;;-0.72;100.00;100288.60;105168;1271;73321;-80
2022/01/25 05:49:51;;;;;;;45.40;28.30;;;;;;;-0.72;100.00;100279.70;105172;1271;62104;-77
2022/01/25 05:52:18;;;;;;;45.50;26.80;;;;;;;-0.72;100.00;100271.33;105198;1271;62197;-79
2022/01/25 05:54:46;;;;;;;43.50;27.90;;;;;;;-0.71;100.00;100265.03;105188;1271;76533;-79
2022/01/25 05:57:12;;;;;;;50.30;28.50;;;;;;;-0.71;100.00;100266.95;105203;1270;70270;-78
2022/01/25 05:59:39;;;;;;;43.30;26.30;;;;;;;-0.70;100.00;100269.74;105201;1271;73188;-79
2022/01/25 06:02:06;;;;;;;46.50;27.80;;;;;;;-0.70;100.00;100268.70;104857;1271;62225;-78
2022/01/25 06:04:32;;;;;;;46.10;26.30;;;;;;;-0.70;100.00;100272.38;104427;1271;1003027;-77
2022/01/25 06:06:59;;;;;;;43.40;26.20;;;;;;;-0.70;100.00;100270.63;105166;1271;76043;-78
2022/01/25 06:09:26;;;;;;;42.50;26.80;;;;;;;-0.69;100.00;100269.91;105257;1271;68359;-77
2022/01/25 06:11:54;;;;;;;44.20;26.30;;;;;;;-0.71;100.00;100273.41;104959;1271;73363;-79
2022/01/25 06:14:21;;;;;;;48.00;28.50;;;;;;;-0.70;100.00;100275.16;105199;1271;62200;-79
2022/01/25 06:16:48;;;;;;;38.40;25.20;;;;;;;-0.71;100.00;100280.58;105193;1271;62056;-79
2022/01/25 06:19:14;;;;;;;43.50;26.20;;;;;;;-0.72;100.00;100278.47;105183;1271;75782;-77
2022/01/25 06:21:41;;;;;;;46.70;27.80;;;;;;;-0.72;100.00;100272.55;105209;1271;70200;-78
2022/01/25 06:24:08;;;;;;;50.90;29.20;;;;;;;-0.72;100.00;100268.16;105183;1271;74699;-79
2022/01/25 06:26:34;;;;;;;46.80;28.20;;;;;;;-0.71;100.00;100269.41;105210;1271;62169;-78
2022/01/25 06:29:01;;;;;;;42.80;26.40;;;;;;;-0.71;100.00;100267.83;105175;1271;62158;-78
2022/01/25 06:31:30;;;;;;;44.40;27.60;;;;;;;-0.71;100.00;100266.95;105201;1271;76290;-78
2022/01/25 06:33:58;;;;;;;48.30;27.90;;;;;;;-0.72;100.00;100266.61;105207;1271;70183;-78
2022/01/25 06:36:25;;;;;;;41.50;26.90;;;;;;;-0.73;100.00;100266.10;105180;1271;72636;-78
2022/01/25 06:38:52;;;;;;;39.40;25.20;;;;;;;-0.73;100.00;100260.52;104878;1272;62081;-78
2022/01/25 06:41:18;;;;;;;41.90;27.70;;;;;;;-0.73;100.00;100257.89;105163;1271;62049;-78
2022/01/25 06:43:45;;;;;;;46.20;28.70;;;;;;;-0.72;100.00;100257.71;105175;1271;76722;-79
2022/01/25 06:46:12;;;;;;;45.30;28.60;;;;;;;-0.70;100.00;100254.91;105177;1271;69122;-78
2022/01/25 06:48:39;;;;;;;48.20;29.00;;;;;;;-0.68;100.00;100254.41;105114;1271;74064;-79
2022/01/25 06:51:05;;;;;;;41.90;26.90;;;;;;;-0.66;100.00;100255.09;105165;1271;61976;-78
2022/01/25 06:53:32;;;;;;;42.00;26.90;;;;;;;-0.64;100.00;100257.70;105148;1271;61936;-78
2022/01/25 06:55:59;;;;;;;43.20;28.70;;;;;;;-0.62;100.00;100259.10;105161;1271;76946;-78
2022/01/25 06:58:25;;;;;;;33.70;22.40;;;;;;;-0.59;100.00;100260.15;105170;1271;69391;-79
2022/01/25 07:00:52;;;;;;;43.60;29.20;;;;;;;-0.58;100.00;100254.91;105173;1271;73388;-81
2022/01/25 07:03:19;;;;;;;41.40;26.60;;;;;;;-0.57;100.00;100249.14;105276;1271;62097;-79
2022/01/25 07:05:45;;;;;;;40.00;27.00;;;;;;;-0.55;100.00;100255.61;105070;1271;62067;-80
2022/01/25 07:08:12;;;;;;;41.90;26.80;;;;;;;-0.55;100.00;100258.58;105241;1271;76988;-78
2022/01/25 07:10:39;;;;;;;39.50;26.50;;;;;;;-0.54;100.00;100256.81;105213;1271;69639;-78
2022/01/25 07:13:06;;;;;;;35.80;25.20;;;;;;;-0.51;100.00;100259.08;105062;1274;73314;-77
2022/01/25 07:15:33;;;;;;;41.50;27.00;;;;;;;-0.49;100.00;100257.33;105242;1271;62441;-78
2022/01/25 07:17:59;;;;;;;36.00;23.70;;;;;;;-0.46;100.00;100260.98;104944;1271;62108;-79
2022/01/25 07:20:26;;;;;;;38.80;26.50;;;;;;;-0.43;100.00;100257.86;105235;1271;76875;-75
2022/01/25 07:22:53;;;;;;;39.70;24.20;;;;;;;-0.39;100.00;100255.93;104960;1274;70749;-74
2022/01/25 07:25:21;;;;;;;34.90;25.80;;;;;;;-0.38;100.00;100247.89;104946;1271;73353;-74
2022/01/25 07:27:48;;;;;;;38.20;24.80;;;;;;;-0.35;100.00;100250.67;105278;1271;62146;-74
2022/01/25 07:30:15;;;;;;;37.10;24.10;;;;;;;-0.32;100.00;100252.77;105315;1271;62157;-76
2022/01/25 07:32:42;;;;;;;41.60;27.40;;;;;;;-0.30;100.00;100251.71;105229;1271;76005;-75
2022/01/25 07:35:08;;;;;;;36.90;23.50;;;;;;;-0.26;100.00;100250.30;105190;1271;68561;-74
2022/01/25 07:37:35;;;;;;;38.90;24.60;;;;;;;-0.22;100.00;100249.07;105188;1271;74308;-74
2022/01/25 07:40:04;;;;;;;38.80;26.10;;;;;;;-0.17;100.00;100238.05;105185;1271;62117;-75
2022/01/25 07:42:34;;;;;;;39.90;26.50;;;;;;;-0.13;100.00;100237.86;105213;1271;62073;-75
2022/01/25 07:45:07;;;;;;;37.90;26.40;;;;;;;-0.08;100.00;100244.67;105184;1271;76123;-76
2022/01/25 07:47:36;;;;;;;37.70;25.30;;;;;;;-0.05;100.00;100245.52;105271;1271;69467;-75
2022/01/25 07:50:05;;;;;;;39.30;27.80;;;;;;;-0.02;100.00;100242.89;105259;1271;74226;-75
2022/01/25 07:52:31;;;;;;;43.00;28.30;;;;;;;0.03;100.00;100229.77;105169;1271;62110;-75
2022/01/25 07:54:58;;;;;;;41.60;25.10;;;;;;;0.09;100.00;100231.13;105208;1271;62126;-76
2022/01/25 07:57:25;;;;;;;36.10;23.80;;;;;;;0.12;100.00;100239.16;104876;1271;77156;-74
2022/01/25 07:59:52;;;;;;;42.20;27.40;;;;;;;0.16;100.00;100239.67;105238;1271;69295;-75
2022/01/25 08:02:20;;;;;;;37.20;26.20;;;;;;;0.18;100.00;100233.70;105195;1271;73335;-74
2022/01/25 08:04:47;;;;;;;43.70;27.40;;;;;;;0.21;100.00;100239.64;104980;1274;62419;-74
2022/01/25 08:07:13;;;;;;;37.30;24.90;;;;;;;0.26;100.00;100230.36;105384;1271;62107;-74
2022/01/25 08:09:40;;;;;;;43.60;27.80;;;;;;;0.28;100.00;100227.89;105414;1271;74365;-73
2022/01/25 08:12:09;;;;;;;42.40;27.60;;;;;;;0.30;100.00;100237.50;105216;1271;69379;-75
2022/01/25 08:14:36;;;;;;;42.00;27.20;;;;;;;0.31;100.00;100233.12;105257;1271;73153;-74
2022/01/25 08:17:02;;;;;;;40.60;26.20;;;;;;;0.35;100.00;100234.68;105231;1271;62152;-76
2022/01/25 08:19:29;;;;;;;41.90;28.10;;;;;;;0.36;100.00;100242.54;105214;1271;62111;-75
2022/01/25 08:21:56;;;;;;;41.10;26.60;;;;;;;0.39;100.00;100236.23;105028;1270;76187;-73
2022/01/25 08:24:22;;;;;;;43.20;29.40;;;;;;;0.44;100.00;100237.95;105213;1271;70170;-73
2022/01/25 08:26:49;;;;;;;44.10;29.90;;;;;;;0.48;100.00;100232.15;105208;1271;74211;-74
2022/01/25 08:29:16;;;;;;;55.60;37.30;;;;;;;0.51;100.00;100230.04;104930;1274;62179;-74
2022/01/25 08:31:42;;;;;;;44.40;30.60;;;;;;;0.54;100.00;100225.48;105226;1271;62178;-73
2022/01/25 08:34:13;;;;;;;47.30;29.40;;;;;;;0.57;100.00;100227.73;105175;1271;75907;-74
2022/01/25 08:36:40;;;;;;;41.50;27.80;;;;;;;0.58;100.00;100239.08;104943;1271;70301;-72
2022/01/25 08:39:08;;;;;;;42.60;27.40;;;;;;;0.60;100.00;100237.85;105193;1271;72636;-72
2022/01/25 08:41:34;;;;;;;48.60;30.00;;;;;;;0.66;100.00;100235.71;105262;1271;62060;-73
2022/01/25 08:44:01;;;;;;;45.70;28.20;;;;;;;0.69;100.00;100235.52;105165;1271;62656;-74
2022/01/25 08:46:28;;;;;;;39.40;27.10;;;;;;;0.68;100.00;100240.42;105158;1271;76921;-74
2022/01/25 08:48:54;;;;;;;41.70;28.50;;;;;;;0.63;100.00;100233.63;104933;1271;67568;-74
2022/01/25 08:51:21;;;;;;;46.40;30.20;;;;;;;0.64;100.00;100233.27;105121;1271;72856;-74
2022/01/25 08:53:48;;;;;;;38.70;26.50;;;;;;;0.76;100.00;100226.54;105117;1271;62118;-75
2022/01/25 08:56:15;;;;;;;42.20;27.50;;;;;;;0.85;100.00;100229.10;104992;1271;62114;-75
2022/01/25 08:58:42;;;;;;;42.60;28.20;;;;;;;0.91;100.00;100227.31;105162;1271;76995;-76
2022/01/25 09:01:09;;;;;;;42.10;27.90;;;;;;;0.96;100.00;100226.92;105248;1271;69251;-75
2022/01/25 09:03:36;;;;;;;45.90;27.70;;;;;;;0.99;100.00;100217.45;104832;1274;71906;-77
2022/01/25 09:06:04;;;;;;;42.20;27.90;;;;;;;1.08;100.00;100214.75;105169;1271;62464;-74
2022/01/25 09:08:32;;;;;;;44.10;27.70;;;;;;;1.20;100.00;100210.61;105191;1271;61862;-73
2022/01/25 09:11:02;;;;;;;39.70;26.90;;;;;;;1.30;100.00;100211.74;104947;1270;75786;-76
2022/01/25 09:13:30;;;;;;;50.70;29.90;;;;;;;1.39;100.00;100207.45;105280;1271;67312;-74
2022/01/25 09:15:58;;;;;;;48.40;30.30;;;;;;;1.48;100.00;100208.93;105180;1271;74690;-76
2022/01/25 09:18:26;;;;;;;50.30;31.40;;;;;;;1.52;100.00;100224.13;105146;1271;62078;-73
2022/01/25 09:20:52;;;;;;;54.40;33.70;;;;;;;1.51;100.00;100228.86;104929;1272;62087;-74
2022/01/25 09:23:20;;;;;;;48.80;31.20;;;;;;;1.57;100.00;100221.81;105155;1271;77119;-76
2022/01/25 09:25:49;;;;;;;47.00;29.70;;;;;;;1.63;100.00;100219.81;105314;1271;70244;-75
2022/01/25 09:28:17;;;;;;;45.50;31.40;;;;;;;1.65;100.00;100216.28;105325;1271;74306;-75
2022/01/25 09:30:45;;;;;;;46.50;30.60;;;;;;;1.65;100.00;100214.00;105258;1271;62094;-76
2022/01/25 09:33:13;;;;;;;47.60;31.40;;;;;;;1.71;100.00;100214.30;105206;1271;62111;-75
2022/01/25 09:35:40;;;;;;;47.10;31.40;;;;;;;1.73;100.00;100215.48;105162;1271;76092;-75
2022/01/25 09:38:07;;;;;;;49.10;31.70;;;;;;;1.77;100.00;100212.30;105148;1271;68482;-76
2022/01/25 09:40:34;;;;;;;49.70;32.40;;;;;;;1.84;100.00;100212.73;105262;1271;72269;-75
2022/01/25 09:43:02;;;;;;;50.00;32.50;;;;;;;1.91;100.00;100214.58;105218;1271;62060;-75
2022/01/25 09:45:29;;;;;;;43.50;29.20;;;;;;;1.96;100.00;100210.50;105027;1271;62072;-76
2022/01/25 09:47:55;;;;;;;48.00;30.30;;;;;;;2.02;100.00;100214.61;105334;1271;76649;-76
2022/01/25 09:50:22;;;;;;;48.00;30.70;;;;;;;2.06;100.00;100215.44;105183;1271;69393;-77
2022/01/25 09:52:50;;;;;;;49.90;31.80;;;;;;;2.08;100.00;100207.52;105201;1271;74296;-76
2022/01/25 09:55:20;;;;;;;46.70;33.50;;;;;;;2.14;100.00;100200.96;104958;1271;62214;-76
2022/01/25 09:57:48;;;;;;;51.40;35.90;;;;;;;2.14;100.00;100198.87;105306;1271;62085;-80
2022/01/25 10:00:19;;;;;;;46.70;31.50;;;;;;;2.16;100.00;100197.78;104987;1271;74119;-75
2022/01/25 10:03:04;;;;;;;50.70;34.30;;;;;;;2.16;100.00;100199.20;104964;1271;69162;-75
2022/01/25 10:05:35;;;;;;;44.00;30.30;;;;;;;2.15;100.00;100194.30;105062;1271;74234;-75
2022/01/25 10:08:05;;;;;;;49.20;32.80;;;;;;;2.17;100.00;100191.48;105107;1271;62072;-77
2022/01/25 10:10:35;;;;;;;51.10;32.70;;;;;;;2.19;100.00;100187.21;105237;1271;62206;-76
2022/01/25 10:13:23;;;;;;;45.50;30.30;;;;;;;2.16;100.00;100191.11;105179;1271;77001;-76
2022/01/25 10:16:01;;;;;;;43.50;30.60;;;;;;;2.06;100.00;100190.39;105171;1271;70430;-76
2022/01/25 10:18:41;;;;;;;43.60;31.30;;;;;;;1.92;100.00;100187.58;105174;1271;73274;-74
2022/01/25 10:21:15;;;;;;;46.20;31.00;;;;;;;1.89;100.00;100187.27;105189;1271;62196;-74
2022/01/25 10:24:05;;;;;;;50.30;32.40;;;;;;;1.89;100.00;100183.23;105203;1271;61978;-73
2022/01/25 10:26:39;;;;;;;51.20;34.30;;;;;;;1.95;100.00;100179.83;104676;1280;77424;-74
2022/01/25 10:29:11;;;;;;;43.40;31.50;;;;;;;1.96;100.00;100178.23;104558;1280;70232;-74
2022/01/25 10:31:41;;;;;;;50.40;31.90;;;;;;;2.00;100.00;100176.63;104400;1280;73795;-76
2022/01/25 10:34:10;;;;;;;43.60;30.40;;;;;;;2.02;100.00;100177.82;104640;1279;62075;-74
2022/01/25 10:36:47;;;;;;;51.40;33.60;;;;;;;2.01;100.00;100167.31;104665;1279;62148;-75
2022/01/25 10:39:19;;;;;;;49.20;33.30;;;;;;;2.07;100.00;100167.75;104689;1279;76146;-75
2022/01/25 10:41:46;;;;;;;50.50;33.00;;;;;;;2.16;100.00;100166.57;104590;1279;68211;-75
2022/01/25 10:44:13;;;;;;;58.30;37.10;;;;;;;2.22;100.00;100162.80;104396;1280;74758;-75
2022/01/25 10:46:40;;;;;;;50.80;33.80;;;;;;;2.25;100.00;100163.30;104569;1280;62286;-75
2022/01/25 10:49:12;;;;;;;53.40;35.50;;;;;;;2.27;100.00;100159.25;104429;1281;62100;-75
2022/01/25 10:51:49;;;;;;;51.80;35.20;;;;;;;2.26;100.00;100156.27;104858;1279;76067;-74
2022/01/25 10:54:24;;;;;;;54.00;35.30;;;;;;;2.26;100.00;100153.82;104815;1279;69164;-74
2022/01/25 10:56:57;;;;;;;50.00;34.10;;;;;;;2.27;100.00;100151.71;104598;1281;73235;-75
2022/01/25 10:59:26;;;;;;;54.10;37.10;;;;;;;2.27;100.00;100145.20;104898;1279;62066;-74
2022/01/25 11:01:57;;;;;;;48.80;32.00;;;;;;;2.29;100.00;100146.23;105135;1279;62139;-75
2022/01/25 11:04:26;;;;;;;50.00;35.10;;;;;;;2.29;100.00;100142.02;105242;1269;76321;-74
2022/01/25 11:06:59;;;;;;;47.50;33.40;;;;;;;2.30;100.00;100143.42;105376;1271;67616;-75
2022/01/25 11:09:34;;;;;;;49.40;32.70;;;;;;;2.31;100.00;100137.09;105527;1272;71502;-76
2022/01/25 11:12:04;;;;;;;45.70;32.80;;;;;;;2.35;100.00;100135.98;105891;1271;62063;-75
2022/01/25 11:14:53;;;;;;;;;;;;;;;2.39;100.00;100139.60;106022;1270;62006;-75
2022/01/25 11:17:25;;;;;;;54.40;33.00;;;;;;;2.40;100.00;100141.52;105836;1271;76003;-75
2022/01/25 11:19:53;;;;;;;47.30;31.90;;;;;;;2.43;100.00;100137.24;108104;1271;69111;-75
2022/01/25 11:22:24;;;;;;;48.00;32.80;;;;;;;2.46;100.00;100134.77;108595;1271;73341;-74
2022/01/25 11:24:59;;;;;;;46.00;30.90;;;;;;;2.52;100.00;100138.52;108575;1271;61967;-75
2022/01/25 11:27:29;;;;;;;45.60;33.80;;;;;;;2.47;100.00;100140.18;108125;1271;61929;-74
2022/01/25 11:30:00;;;;;;;43.70;29.70;;;;;;;2.41;100.00;100135.52;106419;1271;76269;-76
2022/01/25 11:32:39;;;;;;;44.70;32.00;;;;;;;2.36;100.00;100135.61;105269;1271;69689;-75
2022/01/25 11:35:09;;;;;;;47.40;33.40;;;;;;;2.32;100.00;100134.09;105260;1271;74337;-75
2022/01/25 11:37:43;;;;;;;;;;;;;;;2.37;100.00;100126.29;105365;1271;62163;-74
2022/01/25 11:40:27;;;;;;;45.70;32.60;;;;;;;2.36;100.00;100131.56;105327;1271;62161;-75
2022/01/25 11:43:00;;;;;;;43.90;29.00;;;;;;;2.34;100.00;100125.99;105310;1271;74968;-74
2022/01/25 11:45:35;;;;;;;45.40;30.20;;;;;;;2.28;100.00;100126.62;105185;1271;70273;-74
2022/01/25 11:48:02;;;;;;;45.00;31.10;;;;;;;2.22;100.00;100124.42;105200;1271;73846;-74
2022/01/25 11:50:41;;;;;;;43.40;31.10;;;;;;;2.19;100.00;100122.19;105247;1271;61952;-74
2022/01/25 11:53:14;;;;;;;45.60;30.40;;;;;;;2.17;100.00;100123.60;105208;1271;61966;-74
2022/01/25 11:55:52;;;;;;;43.00;30.20;;;;;;;2.13;100.00;100119.64;105112;1270;77457;-74
2022/01/25 11:58:28;;;;;;;44.90;31.90;;;;;;;2.09;100.00;100115.48;105162;1271;67663;-75
2022/01/25 12:00:57;;;;;;;47.00;32.80;;;;;;;2.09;100.00;100117.08;105311;1271;73893;-75
2022/01/25 12:03:28;;;;;;;50.40;34.90;;;;;;;2.06;100.00;100110.45;105304;1271;62177;-75
2022/01/25 12:06:19;;;;;;;48.70;33.10;;;;;;;2.01;100.00;100106.66;104942;1271;62171;-75
2022/01/25 12:11:42;;;;;;;47.90;34.10;;;;;;;1.92;100.00;100099.61;105208;1271;70444;-76
2022/01/25 12:14:17;;;;;;;54.10;34.80;;;;;;;1.93;100.00;100096.45;105264;1271;73371;-74
2022/01/25 12:16:48;;;;;;;49.20;33.60;;;;;;;1.94;100.00;100092.91;105266;1271;62159;-75
2022/01/25 12:19:21;;;;;;;44.60;30.90;;;;;;;1.94;100.00;100089.77;105331;1271;62059;-75
2022/01/25 12:21:48;;;;;;;48.00;33.10;;;;;;;1.96;100.00;100084.48;105299;1271;77141;-75
2022/01/25 12:24:32;;;;;;;52.10;32.20;;;;;;;2.02;100.00;100078.95;105340;1270;69903;-75
2022/01/25 12:27:09;;;;;;;46.20;32.80;;;;;;;2.03;100.00;100079.48;105218;1271;74243;-73
2022/01/25 12:29:42;;;;;;;51.90;35.70;;;;;;;1.99;100.00;100079.34;105198;1271;62101;-74
2022/01/25 12:32:23;;;;;;;50.50;34.20;;;;;;;1.98;100.00;100080.94;105392;1271;61934;-75
2022/01/25 12:34:58;;;;;;;52.80;33.50;;;;;;;1.95;100.00;100082.39;105234;1271;77134;-74
2022/01/25 12:37:43;;;;;;;51.00;34.30;;;;;;;1.93;100.00;100084.70;105267;1271;70307;-74
2022/01/25 12:40:25;;;;;;;49.70;33.00;;;;;;;1.98;100.00;100081.46;105262;1271;73983;-74
2022/01/25 12:43:05;;;;;;;55.30;34.90;;;;;;;2.05;100.00;100084.17;105188;1271;62101;-74
2022/01/25 12:45:43;;;;;;;;;;;;;;;2.10;100.00;100076.38;105268;1269;62479;-75
2022/01/25 12:48:13;;;;;;;50.80;32.00;;;;;;;2.15;100.00;100080.34;105235;1271;76055;-75
2022/01/25 12:50:44;;;;;;;57.60;35.60;;;;;;;2.22;100.00;100075.85;105267;1271;69631;-76
2022/01/25 12:53:14;;;;;;;47.70;30.50;;;;;;;2.29;100.00;100072.94;105287;1271;73237;-75
2022/01/25 12:55:42;;;;;;;;;;;;;;;2.30;100.00;100072.58;105156;1271;62167;-75
2022/01/25 12:58:10;;;;;;;54.40;34.80;;;;;;;2.28;100.00;100074.54;105225;1271;62049;-76
2022/01/25 13:00:40;;;;;;;54.00;35.00;;;;;;;2.30;100.00;100072.58;105285;1268;76443;-75
2022/01/25 13:03:13;;;;;;;59.00;36.90;;;;;;;2.34;100.00;100072.16;105222;1271;70258;-76
2022/01/25 13:05:53;;;;;;;55.80;35.80;;;;;;;2.43;100.00;100072.01;105261;1271;73417;-75
2022/01/25 13:08:42;;;;;;;55.70;35.80;;;;;;;2.46;100.00;100067.59;105089;1270;62062;-74
2022/01/25 13:11:23;;;;;;;56.20;34.60;;;;;;;2.43;100.00;100067.80;105091;1271;226272;-73